| time (UTC) | temp F | wind direction | speed knots | gust knots | rain 1hr in | rain 24hr in | rain mn in | humidity % | barometer mb |
| 20260508230026 | 60 | 200 | 0.0 | 0.0 | 0.00 | 0.00 | 0.00 | 73 | 1010.0 |
| 20260508224522 | 60 | 200 | 0.0 | 0.0 | 0.00 | 0.00 | 0.00 | 73 | 1010.1 |
| 20260508223021 | 61 | 200 | 0.0 | 0.0 | 0.00 | 0.00 | 0.00 | 69 | 1010.0 |
| 20260508221522 | 62 | 200 | 0.0 | 0.0 | 0.00 | 0.00 | 0.00 | 65 | 1010.1 |
| 20260508220022 | 63 | 200 | 0.0 | 0.9 | 0.00 | 0.00 | 0.00 | 62 | 1010.1 |
| 20260508214519 | 63 | 259 | 0.0 | 0.9 | 0.00 | 0.00 | 0.00 | 60 | 1009.9 |
| 20260508213017 | 63 | 268 | 0.0 | 1.7 | 0.00 | 0.00 | 0.00 | 60 | 1010.2 |
| 20260508211519 | 63 | 247 | 0.0 | 2.6 | 0.00 | 0.00 | 0.00 | 60 | 1010.3 |
| 20260508210017 | 63 | 182 | 0.0 | 4.3 | 0.00 | 0.00 | 0.00 | 58 | 1010.4 |
| 20260508204513 | 63 | 186 | 0.0 | 4.3 | 0.00 | 0.00 | 0.00 | 57 | 1010.6 |
| 20260508203014 | 64 | 163 | 0.0 | 4.3 | 0.00 | 0.00 | 0.00 | 56 | 1010.5 |
| 20260508201613 | 64 | 159 | 1.7 | 4.3 | 0.00 | 0.00 | 0.00 | 55 | 1010.7 |
| 20260508200026 | 65 | 292 | 0.9 | 7.0 | 0.00 | 0.00 | 0.00 | 55 | 1010.9 |
| 20260508194620 | 65 | 163 | 3.5 | 9.6 | 0.00 | 0.00 | 0.00 | 55 | 1010.9 |
| 20260508193037 | 65 | 178 | 0.9 | 6.1 | 0.00 | 0.00 | 0.00 | 55 | 1010.9 |
| 20260508191629 | 65 | 152 | 1.7 | 7.0 | 0.00 | 0.00 | 0.00 | 55 | 1011.2 |
| 20260508190058 | 66 | 191 | 0.9 | 6.1 | 0.00 | 0.00 | 0.00 | 54 | 1011.5 |
| 20260508184509 | 66 | 225 | 1.7 | 7.8 | 0.00 | 0.00 | 0.00 | 56 | 1011.5 |
| 20260508183106 | 65 | 87 | 1.7 | 7.8 | 0.00 | 0.00 | 0.00 | 54 | 1011.7 |
| 20260508181550 | 65 | 41 | 3.5 | 9.6 | 0.00 | 0.00 | 0.00 | 54 | 1011.9 |
| 20260508180050 | 64 | 232 | 0.9 | 6.1 | 0.00 | 0.00 | 0.00 | 55 | 1012.1 |
| 20260508174559 | 65 | 160 | 2.6 | 9.6 | 0.00 | 0.00 | 0.00 | 54 | 1012.4 |
| 20260508173053 | 66 | 285 | 0.9 | 7.0 | 0.00 | 0.00 | 0.00 | 57 | 1012.6 |
| 20260508171551 | 65 | 246 | 2.6 | 7.8 | 0.00 | 0.00 | 0.00 | 58 | 1012.7 |
| 20260508170046 | 64 | 282 | 1.7 | 7.0 | 0.00 | 0.00 | 0.00 | 57 | 1013.0 |
| 20260508164547 | 63 | 224 | 1.7 | 7.8 | 0.00 | 0.00 | 0.00 | 58 | 1013.5 |
| 20260508163106 | 63 | 58 | 1.7 | 6.1 | 0.00 | 0.00 | 0.00 | 58 | 1013.7 |
| 20260508161538 | 62 | 355 | 0.9 | 4.3 | 0.00 | 0.00 | 0.00 | 61 | 1013.9 |
| 20260508160035 | 61 | 247 | 1.7 | 9.6 | 0.00 | 0.00 | 0.00 | 62 | 1013.8 |
| 20260508154530 | 61 | 267 | 0.9 | 7.0 | 0.00 | 0.00 | 0.00 | 62 | 1014.1 |
| 20260508153031 | 60 | 146 | 1.7 | 6.1 | 0.00 | 0.00 | 0.00 | 61 | 1014.1 |
| 20260508151532 | 59 | 300 | 0.9 | 5.2 | 0.00 | 0.00 | 0.00 | 63 | 1014.3 |
| 20260508150027 | 58 | 129 | 0.9 | 5.2 | 0.00 | 0.00 | 0.00 | 63 | 1014.5 |
| 20260508144518 | 57 | 148 | 0.9 | 6.1 | 0.00 | 0.00 | 0.00 | 66 | 1014.7 |
| 20260508143017 | 56 | 287 | 0.9 | 4.3 | 0.00 | 0.00 | 0.00 | 67 | 1014.9 |
| 20260508141511 | 54 | 283 | 0.0 | 3.5 | 0.00 | 0.00 | 0.00 | 69 | 1015.0 |
| 20260508140016 | 53 | 306 | 0.9 | 2.6 | 0.00 | 0.00 | 0.00 | 69 | 1015.0 |
| 20260508134610 | 53 | 178 | 0.9 | 2.6 | 0.00 | 0.00 | 0.00 | 71 | 1015.3 |
| 20260508133022 | 51 | 273 | 0.0 | 1.7 | 0.00 | 0.00 | 0.00 | 73 | 1015.5 |
| 20260508131619 | 50 | 217 | 0.0 | 0.9 | 0.00 | 0.00 | 0.00 | 77 | 1015.3 |
| 20260508130055 | 50 | 217 | 0.0 | 0.0 | 0.00 | 0.00 | 0.00 | 84 | 1015.1 |
| 20260508124505 | 49 | 217 | 0.0 | 0.0 | 0.00 | 0.00 | 0.00 | 84 | 1015.3 |
| 20260508123006 | 49 | 217 | 0.0 | 0.0 | 0.00 | 0.00 | 0.00 | 79 | 1014.9 |
| 20260508121503 | 48 | 217 | 0.0 | 0.0 | 0.00 | 0.00 | 0.00 | 79 | 1015.1 |
| 20260508120004 | 48 | 217 | 0.0 | 0.0 | 0.00 | 0.00 | 0.00 | 78 | 1014.9 |
| 20260508114501 | 48 | 217 | 0.0 | 0.0 | 0.00 | 0.00 | 0.00 | 81 | 1014.9 |
| 20260508113103 | 48 | 217 | 0.0 | 0.0 | 0.00 | 0.00 | 0.00 | 79 | 1014.8 |
| 20260508111600 | 48 | 217 | 0.0 | 0.9 | 0.00 | 0.00 | 0.00 | 74 | 1014.5 |
| 20260508110138 | 48 | 220 | 0.9 | 2.6 | 0.00 | 0.00 | 0.00 | 73 | 1014.4 |
| 20260508110002 | 48 | 223 | 0.0 | 2.6 | 0.00 | 0.00 | 0.00 | 74 | 1014.4 |
| 20260508104604 | 48 | 212 | 0.0 | 2.6 | 0.00 | 0.00 | 0.00 | 73 | 1014.3 |
| 20260508103059 | 48 | 211 | 0.0 | 1.7 | 0.00 | 0.00 | 0.00 | 73 | 1014.4 |
| 20260508101600 | 48 | 303 | 0.0 | 2.6 | 0.00 | 0.00 | 0.00 | 73 | 1014.2 |
| 20260508100058 | 48 | 178 | 0.0 | 2.6 | 0.00 | 0.00 | 0.00 | 73 | 1014.1 |
| 20260508094557 | 47 | 223 | 0.0 | 1.7 | 0.00 | 0.00 | 0.00 | 73 | 1014.4 |
| 20260508093101 | 47 | 172 | 0.0 | 1.7 | 0.00 | 0.00 | 0.00 | 74 | 1014.4 |
| 20260508091551 | 47 | 163 | 0.0 | 2.6 | 0.00 | 0.00 | 0.00 | 74 | 1014.4 |
| 20260508090106 | 47 | 227 | 0.0 | 1.7 | 0.00 | 0.00 | 0.00 | 73 | 1014.6 |
| 20260508084547 | 47 | 234 | 0.0 | 4.3 | 0.00 | 0.00 | 0.00 | 72 | 1014.5 |
| 20260508083047 | 48 | 263 | 0.0 | 2.6 | 0.00 | 0.00 | 0.00 | 72 | 1014.6 |
| 20260508081548 | 48 | 221 | 0.0 | 1.7 | 0.00 | 0.00 | 0.00 | 71 | 1014.6 |
| 20260508080045 | 48 | 185 | 0.0 | 0.0 | 0.00 | 0.00 | 0.00 | 71 | 1014.7 |
| 20260508074544 | 48 | 183 | 0.0 | 0.0 | 0.00 | 0.00 | 0.00 | 71 | 1014.6 |
| 20260508073043 | 48 | 183 | 0.0 | 1.7 | 0.00 | 0.00 | 0.00 | 71 | 1014.6 |
| 20260508071541 | 47 | 232 | 0.0 | 1.7 | 0.00 | 0.00 | 0.00 | 73 | 1014.8 |
| 20260508070038 | 47 | 230 | 0.0 | 0.9 | 0.00 | 0.00 | 0.00 | 74 | 1015.0 |
| 20260508064535 | 48 | 230 | 0.0 | 0.0 | 0.00 | 0.00 | 0.00 | 72 | 1015.1 |
| 20260508063033 | 49 | 230 | 0.0 | 0.0 | 0.00 | 0.00 | 0.00 | 71 | 1015.2 |
| 20260508061531 | 50 | 203 | 0.0 | 2.6 | 0.00 | 0.00 | 0.00 | 67 | 1015.1 |
| 20260508060028 | 50 | 182 | 0.0 | 1.7 | 0.00 | 0.00 | 0.00 | 66 | 1015.0 |
| 20260508054527 | 50 | 196 | 0.0 | 2.6 | 0.00 | 0.00 | 0.00 | 65 | 1015.2 |
| 20260508053027 | 51 | 150 | 0.0 | 3.5 | 0.00 | 0.00 | 0.00 | 65 | 1015.2 |
| 20260508051526 | 51 | 194 | 0.0 | 2.6 | 0.00 | 0.00 | 0.00 | 66 | 1015.1 |
| 20260508050024 | 50 | 221 | 0.0 | 1.7 | 0.00 | 0.00 | 0.00 | 68 | 1015.1 |
| 20260508044525 | 50 | 230 | 0.0 | 1.7 | 0.00 | 0.00 | 0.00 | 70 | 1015.2 |
| 20260508043022 | 50 | 231 | 0.0 | 0.0 | 0.00 | 0.00 | 0.00 | 72 | 1015.1 |
| 20260508041530 | 51 | 231 | 0.0 | 0.0 | 0.00 | 0.00 | 0.00 | 71 | 1015.2 |
| 20260508040019 | 51 | 231 | 0.0 | 0.0 | 0.00 | 0.00 | 0.00 | 69 | 1015.1 |
| 20260508034520 | 51 | 231 | 0.0 | 1.7 | 0.00 | 0.00 | 0.00 | 68 | 1015.2 |
| 20260508033024 | 51 | 184 | 0.0 | 0.9 | 0.00 | 0.00 | 0.00 | 69 | 1015.1 |
| 20260508031516 | 50 | 184 | 0.0 | 2.6 | 0.00 | 0.00 | 0.00 | 70 | 1015.2 |
| 20260508030016 | 50 | 331 | 0.0 | 0.9 | 0.00 | 0.00 | 0.00 | 72 | 1015.1 |
| 20260508024519 | 51 | 331 | 0.0 | 0.0 | 0.00 | 0.00 | 0.00 | 73 | 1015.1 |
| 20260508023027 | 51 | 331 | 0.0 | 0.0 | 0.00 | 0.00 | 0.00 | 69 | 1015.0 |
| 20260508021514 | 51 | 331 | 0.0 | 0.0 | 0.00 | 0.00 | 0.00 | 67 | 1015.0 |
| 20260508020013 | 52 | 331 | 0.0 | 0.0 | 0.00 | 0.00 | 0.00 | 66 | 1014.9 |
| 20260508014512 | 53 | 331 | 0.0 | 0.0 | 0.00 | 0.00 | 0.00 | 64 | 1014.9 |
| 20260508013011 | 54 | 331 | 0.0 | 1.7 | 0.00 | 0.00 | 0.00 | 59 | 1014.8 |
| 20260508011511 | 54 | 259 | 0.0 | 1.7 | 0.00 | 0.00 | 0.00 | 58 | 1015.0 |
| 20260508010013 | 54 | 218 | 0.0 | 1.7 | 0.00 | 0.00 | 0.00 | 58 | 1014.9 |
| 20260508004517 | 55 | 201 | 0.0 | 0.0 | 0.00 | 0.00 | 0.00 | 57 | 1015.0 |
| 20260508003009 | 55 | 201 | 0.0 | 0.0 | 0.00 | 0.00 | 0.00 | 54 | 1014.9 |
| 20260508001511 | 55 | 200 | 0.0 | 2.6 | 0.00 | 0.00 | 0.00 | 53 | 1014.8 |
| 20260508000010 | 56 | 232 | 0.0 | 1.7 | 0.00 | 0.00 | 0.00 | 51 | 1014.8 |
| 20260507234623 | 57 | 254 | 0.0 | 1.7 | 0.00 | 0.00 | 0.00 | 50 | 1014.6 |
| 20260507233052 | 57 | 169 | 0.0 | 4.3 | 0.00 | 0.00 | 0.00 | 49 | 1014.5 |
| 20260507231510 | 58 | 167 | 0.0 | 2.6 | 0.00 | 0.00 | 0.00 | 49 | 1014.6 |